sensor_id;sensor_type;location;lat;lon;timestamp;P1;durP1;ratioP1;P2;durP2;ratioP2
7531;SDS011;3807;49.030;8.714;2023-07-29T00:02:07;2.93;;;1.30;;
7531;SDS011;3807;49.030;8.714;2023-07-29T00:04:32;3.67;;;1.43;;
7531;SDS011;3807;49.030;8.714;2023-07-29T00:06:58;2.30;;;1.33;;
7531;SDS011;3807;49.030;8.714;2023-07-29T00:09:23;1.63;;;1.20;;
7531;SDS011;3807;49.030;8.714;2023-07-29T00:11:48;3.00;;;1.67;;
7531;SDS011;3807;49.030;8.714;2023-07-29T00:14:14;3.83;;;1.30;;
7531;SDS011;3807;49.030;8.714;2023-07-29T00:16:39;1.60;;;1.40;;
7531;SDS011;3807;49.030;8.714;2023-07-29T00:19:06;3.03;;;1.27;;
7531;SDS011;3807;49.030;8.714;2023-07-29T00:21:31;1.30;;;1.20;;
7531;SDS011;3807;49.030;8.714;2023-07-29T00:23:56;3.23;;;1.30;;
7531;SDS011;3807;49.030;8.714;2023-07-29T00:26:22;2.30;;;1.20;;
7531;SDS011;3807;49.030;8.714;2023-07-29T00:28:48;2.37;;;1.20;;
7531;SDS011;3807;49.030;8.714;2023-07-29T00:31:13;4.13;;;1.57;;
7531;SDS011;3807;49.030;8.714;2023-07-29T00:33:38;2.93;;;1.10;;
7531;SDS011;3807;49.030;8.714;2023-07-29T00:36:04;2.13;;;1.30;;
7531;SDS011;3807;49.030;8.714;2023-07-29T00:38:29;3.93;;;1.20;;
7531;SDS011;3807;49.030;8.714;2023-07-29T00:40:56;7.13;;;1.40;;
7531;SDS011;3807;49.030;8.714;2023-07-29T00:43:22;1.20;;;1.10;;
7531;SDS011;3807;49.030;8.714;2023-07-29T00:45:47;2.90;;;1.20;;
7531;SDS011;3807;49.030;8.714;2023-07-29T00:48:13;5.80;;;1.40;;
7531;SDS011;3807;49.030;8.714;2023-07-29T00:50:39;1.50;;;1.30;;
7531;SDS011;3807;49.030;8.714;2023-07-29T00:53:05;3.93;;;1.53;;
7531;SDS011;3807;49.030;8.714;2023-07-29T00:55:31;3.77;;;1.40;;
7531;SDS011;3807;49.030;8.714;2023-07-29T00:57:57;1.83;;;1.00;;
7531;SDS011;3807;49.030;8.714;2023-07-29T01:00:22;2.70;;;1.00;;
7531;SDS011;3807;49.030;8.714;2023-07-29T01:02:47;1.40;;;0.97;;
7531;SDS011;3807;49.030;8.714;2023-07-29T01:05:14;2.20;;;1.00;;
7531;SDS011;3807;49.030;8.714;2023-07-29T01:07:44;1.13;;;1.00;;
7531;SDS011;3807;49.030;8.714;2023-07-29T01:12:57;1.27;;;1.10;;
7531;SDS011;3807;49.030;8.714;2023-07-29T01:15:26;1.77;;;0.97;;
7531;SDS011;3807;49.030;8.714;2023-07-29T01:18:08;1.73;;;1.30;;
7531;SDS011;3807;49.030;8.714;2023-07-29T01:20:40;1.80;;;1.13;;
7531;SDS011;3807;49.030;8.714;2023-07-29T01:23:08;3.67;;;1.20;;
7531;SDS011;3807;49.030;8.714;2023-07-29T01:25:34;4.23;;;1.40;;
7531;SDS011;3807;49.030;8.714;2023-07-29T01:27:59;2.30;;;1.37;;
7531;SDS011;3807;49.030;8.714;2023-07-29T01:30:28;3.57;;;1.20;;
7531;SDS011;3807;49.030;8.714;2023-07-29T01:33:14;2.33;;;1.07;;
7531;SDS011;3807;49.030;8.714;2023-07-29T01:35:45;1.07;;;0.97;;
7531;SDS011;3807;49.030;8.714;2023-07-29T01:38:19;2.00;;;1.07;;
7531;SDS011;3807;49.030;8.714;2023-07-29T01:40:49;2.70;;;1.33;;
7531;SDS011;3807;49.030;8.714;2023-07-29T01:43:17;3.30;;;1.07;;
7531;SDS011;3807;49.030;8.714;2023-07-29T01:45:48;2.20;;;1.00;;
7531;SDS011;3807;49.030;8.714;2023-07-29T01:48:14;1.10;;;1.00;;
7531;SDS011;3807;49.030;8.714;2023-07-29T01:50:39;1.23;;;1.10;;
7531;SDS011;3807;49.030;8.714;2023-07-29T01:53:04;1.63;;;1.20;;
7531;SDS011;3807;49.030;8.714;2023-07-29T01:55:29;2.37;;;1.20;;
7531;SDS011;3807;49.030;8.714;2023-07-29T01:57:55;1.10;;;1.00;;
7531;SDS011;3807;49.030;8.714;2023-07-29T02:00:20;1.17;;;1.00;;
7531;SDS011;3807;49.030;8.714;2023-07-29T02:02:46;1.10;;;1.00;;
7531;SDS011;3807;49.030;8.714;2023-07-29T02:05:11;3.20;;;0.90;;
7531;SDS011;3807;49.030;8.714;2023-07-29T02:07:37;3.27;;;0.90;;
7531;SDS011;3807;49.030;8.714;2023-07-29T02:10:02;1.60;;;1.07;;
7531;SDS011;3807;49.030;8.714;2023-07-29T02:12:28;3.60;;;1.40;;
7531;SDS011;3807;49.030;8.714;2023-07-29T02:14:53;1.50;;;1.07;;
7531;SDS011;3807;49.030;8.714;2023-07-29T02:17:19;1.20;;;1.00;;
7531;SDS011;3807;49.030;8.714;2023-07-29T02:19:44;1.80;;;1.10;;
7531;SDS011;3807;49.030;8.714;2023-07-29T02:22:10;2.20;;;1.30;;
7531;SDS011;3807;49.030;8.714;2023-07-29T02:24:38;5.40;;;1.20;;
7531;SDS011;3807;49.030;8.714;2023-07-29T02:27:03;1.50;;;1.13;;
7531;SDS011;3807;49.030;8.714;2023-07-29T02:29:28;1.70;;;1.13;;
7531;SDS011;3807;49.030;8.714;2023-07-29T02:31:55;2.50;;;1.23;;
7531;SDS011;3807;49.030;8.714;2023-07-29T02:34:20;1.00;;;0.90;;
7531;SDS011;3807;49.030;8.714;2023-07-29T02:36:46;1.40;;;1.00;;
7531;SDS011;3807;49.030;8.714;2023-07-29T02:39:11;1.90;;;1.03;;
7531;SDS011;3807;49.030;8.714;2023-07-29T02:41:36;2.90;;;1.20;;
7531;SDS011;3807;49.030;8.714;2023-07-29T02:44:02;4.57;;;1.60;;
7531;SDS011;3807;49.030;8.714;2023-07-29T02:46:28;2.47;;;1.20;;
7531;SDS011;3807;49.030;8.714;2023-07-29T02:48:53;3.27;;;1.03;;
7531;SDS011;3807;49.030;8.714;2023-07-29T02:51:19;1.43;;;1.10;;
7531;SDS011;3807;49.030;8.714;2023-07-29T02:53:44;2.87;;;1.20;;
7531;SDS011;3807;49.030;8.714;2023-07-29T02:56:09;2.63;;;0.93;;
7531;SDS011;3807;49.030;8.714;2023-07-29T02:58:35;3.83;;;1.30;;
7531;SDS011;3807;49.030;8.714;2023-07-29T03:01:02;1.17;;;1.03;;
7531;SDS011;3807;49.030;8.714;2023-07-29T03:03:29;2.77;;;1.00;;
7531;SDS011;3807;49.030;8.714;2023-07-29T03:05:59;5.13;;;1.20;;
7531;SDS011;3807;49.030;8.714;2023-07-29T03:08:28;4.03;;;1.23;;
7531;SDS011;3807;49.030;8.714;2023-07-29T03:10:54;1.70;;;1.30;;
7531;SDS011;3807;49.030;8.714;2023-07-29T03:13:20;2.20;;;0.90;;
7531;SDS011;3807;49.030;8.714;2023-07-29T03:15:45;3.93;;;1.23;;
7531;SDS011;3807;49.030;8.714;2023-07-29T03:18:10;1.17;;;1.00;;
7531;SDS011;3807;49.030;8.714;2023-07-29T03:20:36;1.20;;;1.10;;
7531;SDS011;3807;49.030;8.714;2023-07-29T03:23:01;2.27;;;1.07;;
7531;SDS011;3807;49.030;8.714;2023-07-29T03:25:27;4.00;;;1.33;;
7531;SDS011;3807;49.030;8.714;2023-07-29T03:27:53;3.03;;;1.13;;
7531;SDS011;3807;49.030;8.714;2023-07-29T03:30:19;4.40;;;1.20;;
7531;SDS011;3807;49.030;8.714;2023-07-29T03:32:46;1.10;;;1.00;;
7531;SDS011;3807;49.030;8.714;2023-07-29T03:35:11;2.80;;;1.00;;
7531;SDS011;3807;49.030;8.714;2023-07-29T03:37:36;1.63;;;1.20;;
7531;SDS011;3807;49.030;8.714;2023-07-29T03:40:02;1.57;;;1.07;;
7531;SDS011;3807;49.030;8.714;2023-07-29T03:42:28;2.33;;;0.97;;
7531;SDS011;3807;49.030;8.714;2023-07-29T03:44:53;2.27;;;1.00;;
7531;SDS011;3807;49.030;8.714;2023-07-29T03:47:19;3.23;;;1.20;;
7531;SDS011;3807;49.030;8.714;2023-07-29T03:49:44;2.57;;;1.00;;
7531;SDS011;3807;49.030;8.714;2023-07-29T03:52:10;1.87;;;1.30;;
7531;SDS011;3807;49.030;8.714;2023-07-29T03:54:35;1.47;;;1.10;;
7531;SDS011;3807;49.030;8.714;2023-07-29T03:57:01;1.50;;;1.10;;
7531;SDS011;3807;49.030;8.714;2023-07-29T03:59:26;2.87;;;1.10;;
7531;SDS011;3807;49.030;8.714;2023-07-29T04:01:51;1.10;;;0.97;;
7531;SDS011;3807;49.030;8.714;2023-07-29T04:04:16;1.80;;;1.10;;
7531;SDS011;3807;49.030;8.714;2023-07-29T04:06:42;3.13;;;1.10;;
7531;SDS011;3807;49.030;8.714;2023-07-29T04:09:07;3.03;;;1.30;;
7531;SDS011;3807;49.030;8.714;2023-07-29T04:11:33;2.50;;;1.00;;
7531;SDS011;3807;49.030;8.714;2023-07-29T04:13:58;1.63;;;1.00;;
7531;SDS011;3807;49.030;8.714;2023-07-29T04:16:24;1.67;;;0.93;;
7531;SDS011;3807;49.030;8.714;2023-07-29T04:18:49;6.00;;;1.30;;
7531;SDS011;3807;49.030;8.714;2023-07-29T04:21:14;1.57;;;1.17;;
7531;SDS011;3807;49.030;8.714;2023-07-29T04:23:40;7.67;;;1.70;;
7531;SDS011;3807;49.030;8.714;2023-07-29T04:26:05;3.10;;;1.40;;
7531;SDS011;3807;49.030;8.714;2023-07-29T04:28:30;3.50;;;1.10;;
7531;SDS011;3807;49.030;8.714;2023-07-29T04:30:56;3.53;;;1.10;;
7531;SDS011;3807;49.030;8.714;2023-07-29T04:33:21;2.73;;;0.87;;
7531;SDS011;3807;49.030;8.714;2023-07-29T04:35:47;4.23;;;1.23;;
7531;SDS011;3807;49.030;8.714;2023-07-29T04:38:12;2.10;;;1.10;;
7531;SDS011;3807;49.030;8.714;2023-07-29T04:40:37;3.23;;;1.40;;
7531;SDS011;3807;49.030;8.714;2023-07-29T04:43:03;2.13;;;1.20;;
7531;SDS011;3807;49.030;8.714;2023-07-29T04:45:28;3.27;;;1.33;;
7531;SDS011;3807;49.030;8.714;2023-07-29T04:47:54;1.30;;;1.20;;
7531;SDS011;3807;49.030;8.714;2023-07-29T04:50:20;2.00;;;1.60;;
7531;SDS011;3807;49.030;8.714;2023-07-29T04:52:45;1.33;;;1.13;;
7531;SDS011;3807;49.030;8.714;2023-07-29T04:55:11;3.23;;;1.30;;
7531;SDS011;3807;49.030;8.714;2023-07-29T04:57:36;1.40;;;1.17;;
7531;SDS011;3807;49.030;8.714;2023-07-29T05:00:02;11.57;;;1.60;;
7531;SDS011;3807;49.030;8.714;2023-07-29T05:02:28;2.17;;;1.20;;
7531;SDS011;3807;49.030;8.714;2023-07-29T05:04:53;1.90;;;1.20;;
7531;SDS011;3807;49.030;8.714;2023-07-29T05:07:19;1.90;;;1.20;;
7531;SDS011;3807;49.030;8.714;2023-07-29T05:09:44;4.20;;;1.50;;
7531;SDS011;3807;49.030;8.714;2023-07-29T05:12:09;2.27;;;1.50;;
7531;SDS011;3807;49.030;8.714;2023-07-29T05:14:35;4.73;;;1.40;;
7531;SDS011;3807;49.030;8.714;2023-07-29T05:17:00;2.77;;;1.50;;
7531;SDS011;3807;49.030;8.714;2023-07-29T05:19:25;4.33;;;2.00;;
7531;SDS011;3807;49.030;8.714;2023-07-29T05:21:51;4.60;;;2.00;;
7531;SDS011;3807;49.030;8.714;2023-07-29T05:24:17;4.80;;;2.07;;
7531;SDS011;3807;49.030;8.714;2023-07-29T05:26:42;2.80;;;1.67;;
7531;SDS011;3807;49.030;8.714;2023-07-29T05:29:07;5.17;;;2.10;;
7531;SDS011;3807;49.030;8.714;2023-07-29T05:31:33;6.50;;;1.80;;
7531;SDS011;3807;49.030;8.714;2023-07-29T05:33:58;3.70;;;2.00;;
7531;SDS011;3807;49.030;8.714;2023-07-29T05:36:24;2.67;;;1.50;;
7531;SDS011;3807;49.030;8.714;2023-07-29T05:38:50;3.03;;;1.93;;
7531;SDS011;3807;49.030;8.714;2023-07-29T05:41:16;3.03;;;1.70;;
7531;SDS011;3807;49.030;8.714;2023-07-29T05:43:41;3.30;;;1.70;;
7531;SDS011;3807;49.030;8.714;2023-07-29T05:46:08;2.07;;;1.70;;
7531;SDS011;3807;49.030;8.714;2023-07-29T05:48:35;4.03;;;1.70;;
7531;SDS011;3807;49.030;8.714;2023-07-29T05:51:00;4.30;;;1.77;;
7531;SDS011;3807;49.030;8.714;2023-07-29T05:53:25;2.20;;;1.43;;
7531;SDS011;3807;49.030;8.714;2023-07-29T05:55:50;2.50;;;1.80;;
7531;SDS011;3807;49.030;8.714;2023-07-29T05:58:16;2.80;;;1.90;;
7531;SDS011;3807;49.030;8.714;2023-07-29T06:00:41;6.57;;;2.20;;
7531;SDS011;3807;49.030;8.714;2023-07-29T06:03:07;4.47;;;1.87;;
7531;SDS011;3807;49.030;8.714;2023-07-29T06:05:32;2.07;;;1.70;;
7531;SDS011;3807;49.030;8.714;2023-07-29T06:07:58;4.77;;;1.90;;
7531;SDS011;3807;49.030;8.714;2023-07-29T06:10:23;2.70;;;1.73;;
7531;SDS011;3807;49.030;8.714;2023-07-29T06:12:48;4.30;;;2.37;;
7531;SDS011;3807;49.030;8.714;2023-07-29T06:15:14;6.80;;;3.07;;
7531;SDS011;3807;49.030;8.714;2023-07-29T06:17:39;5.97;;;3.30;;
7531;SDS011;3807;49.030;8.714;2023-07-29T06:20:06;7.00;;;3.60;;
7531;SDS011;3807;49.030;8.714;2023-07-29T06:22:31;8.67;;;4.23;;
7531;SDS011;3807;49.030;8.714;2023-07-29T06:24:57;10.00;;;2.97;;
7531;SDS011;3807;49.030;8.714;2023-07-29T06:27:23;5.10;;;2.57;;
7531;SDS011;3807;49.030;8.714;2023-07-29T06:29:50;5.27;;;2.67;;
7531;SDS011;3807;49.030;8.714;2023-07-29T06:32:15;6.23;;;2.30;;
7531;SDS011;3807;49.030;8.714;2023-07-29T06:34:41;3.00;;;2.40;;
7531;SDS011;3807;49.030;8.714;2023-07-29T06:37:06;5.67;;;2.57;;
7531;SDS011;3807;49.030;8.714;2023-07-29T06:39:32;2.60;;;2.00;;
7531;SDS011;3807;49.030;8.714;2023-07-29T06:41:57;4.00;;;2.30;;
7531;SDS011;3807;49.030;8.714;2023-07-29T06:44:22;3.93;;;2.57;;
7531;SDS011;3807;49.030;8.714;2023-07-29T06:46:48;4.70;;;2.20;;
7531;SDS011;3807;49.030;8.714;2023-07-29T06:49:13;4.07;;;2.30;;
7531;SDS011;3807;49.030;8.714;2023-07-29T06:51:39;5.27;;;2.10;;
7531;SDS011;3807;49.030;8.714;2023-07-29T06:54:04;3.70;;;2.20;;
7531;SDS011;3807;49.030;8.714;2023-07-29T06:56:29;4.30;;;2.40;;
7531;SDS011;3807;49.030;8.714;2023-07-29T06:58:55;1.60;;;1.50;;
7531;SDS011;3807;49.030;8.714;2023-07-29T07:01:20;4.87;;;1.77;;
7531;SDS011;3807;49.030;8.714;2023-07-29T07:03:46;2.37;;;1.77;;
7531;SDS011;3807;49.030;8.714;2023-07-29T07:06:11;2.40;;;2.17;;
7531;SDS011;3807;49.030;8.714;2023-07-29T07:08:36;2.47;;;1.40;;
7531;SDS011;3807;49.030;8.714;2023-07-29T07:11:02;4.13;;;1.80;;
7531;SDS011;3807;49.030;8.714;2023-07-29T07:13:27;3.13;;;1.67;;
7531;SDS011;3807;49.030;8.714;2023-07-29T07:15:56;4.10;;;1.50;;
7531;SDS011;3807;49.030;8.714;2023-07-29T07:18:21;3.47;;;1.80;;
7531;SDS011;3807;49.030;8.714;2023-07-29T07:20:50;4.03;;;2.00;;
7531;SDS011;3807;49.030;8.714;2023-07-29T07:23:16;2.30;;;1.53;;
7531;SDS011;3807;49.030;8.714;2023-07-29T07:25:42;1.83;;;1.53;;
7531;SDS011;3807;49.030;8.714;2023-07-29T07:28:08;3.03;;;2.00;;
7531;SDS011;3807;49.030;8.714;2023-07-29T07:30:34;3.42;;;2.50;;
7531;SDS011;3807;49.030;8.714;2023-07-29T07:32:59;2.97;;;1.63;;
7531;SDS011;3807;49.030;8.714;2023-07-29T07:35:25;2.60;;;1.87;;
7531;SDS011;3807;49.030;8.714;2023-07-29T07:37:50;3.70;;;1.80;;
7531;SDS011;3807;49.030;8.714;2023-07-29T07:40:16;4.33;;;1.43;;
7531;SDS011;3807;49.030;8.714;2023-07-29T07:42:41;3.73;;;1.83;;
7531;SDS011;3807;49.030;8.714;2023-07-29T07:45:06;2.30;;;1.80;;
7531;SDS011;3807;49.030;8.714;2023-07-29T07:47:32;3.43;;;2.03;;
7531;SDS011;3807;49.030;8.714;2023-07-29T07:49:57;2.80;;;1.90;;
7531;SDS011;3807;49.030;8.714;2023-07-29T07:52:22;3.97;;;2.10;;
7531;SDS011;3807;49.030;8.714;2023-07-29T07:54:51;5.10;;;2.30;;
7531;SDS011;3807;49.030;8.714;2023-07-29T07:57:18;3.53;;;2.30;;
7531;SDS011;3807;49.030;8.714;2023-07-29T07:59:43;3.73;;;2.27;;
7531;SDS011;3807;49.030;8.714;2023-07-29T08:02:08;5.40;;;2.37;;
7531;SDS011;3807;49.030;8.714;2023-07-29T08:04:33;6.67;;;2.57;;
7531;SDS011;3807;49.030;8.714;2023-07-29T08:06:59;2.70;;;2.20;;
7531;SDS011;3807;49.030;8.714;2023-07-29T08:09:24;5.23;;;2.40;;
7531;SDS011;3807;49.030;8.714;2023-07-29T08:11:49;2.73;;;1.90;;
7531;SDS011;3807;49.030;8.714;2023-07-29T08:14:15;3.33;;;2.40;;
7531;SDS011;3807;49.030;8.714;2023-07-29T08:16:40;3.40;;;2.30;;
7531;SDS011;3807;49.030;8.714;2023-07-29T08:19:05;4.70;;;2.30;;
7531;SDS011;3807;49.030;8.714;2023-07-29T08:21:32;3.23;;;2.37;;
7531;SDS011;3807;49.030;8.714;2023-07-29T08:23:57;2.10;;;1.70;;
7531;SDS011;3807;49.030;8.714;2023-07-29T08:26:22;2.57;;;2.10;;
7531;SDS011;3807;49.030;8.714;2023-07-29T08:28:48;3.30;;;2.03;;
7531;SDS011;3807;49.030;8.714;2023-07-29T08:31:13;3.22;;;2.25;;
7531;SDS011;3807;49.030;8.714;2023-07-29T08:33:38;1.80;;;1.67;;
7531;SDS011;3807;49.030;8.714;2023-07-29T08:36:04;2.50;;;2.00;;
7531;SDS011;3807;49.030;8.714;2023-07-29T08:38:29;1.97;;;1.67;;
7531;SDS011;3807;49.030;8.714;2023-07-29T08:41:14;3.20;;;1.80;;
7531;SDS011;3807;49.030;8.714;2023-07-29T08:43:52;4.03;;;2.00;;
7531;SDS011;3807;49.030;8.714;2023-07-29T08:46:23;1.73;;;1.52;;
7531;SDS011;3807;49.030;8.714;2023-07-29T08:48:49;2.40;;;1.70;;
7531;SDS011;3807;49.030;8.714;2023-07-29T08:51:15;5.93;;;1.90;;
7531;SDS011;3807;49.030;8.714;2023-07-29T08:53:42;2.67;;;1.40;;
7531;SDS011;3807;49.030;8.714;2023-07-29T08:56:08;2.80;;;1.85;;
7531;SDS011;3807;49.030;8.714;2023-07-29T08:58:33;4.20;;;1.62;;
7531;SDS011;3807;49.030;8.714;2023-07-29T09:01:00;2.03;;;1.80;;
7531;SDS011;3807;49.030;8.714;2023-07-29T09:03:26;2.10;;;1.73;;
7531;SDS011;3807;49.030;8.714;2023-07-29T09:05:51;3.35;;;1.80;;
7531;SDS011;3807;49.030;8.714;2023-07-29T09:08:18;3.28;;;1.52;;
7531;SDS011;3807;49.030;8.714;2023-07-29T09:10:44;2.87;;;1.50;;
7531;SDS011;3807;49.030;8.714;2023-07-29T09:13:09;2.30;;;1.80;;
7531;SDS011;3807;49.030;8.714;2023-07-29T09:15:35;1.75;;;1.40;;
7531;SDS011;3807;49.030;8.714;2023-07-29T09:18:17;2.97;;;1.80;;
7531;SDS011;3807;49.030;8.714;2023-07-29T09:20:48;1.75;;;1.30;;
7531;SDS011;3807;49.030;8.714;2023-07-29T09:23:14;1.58;;;1.40;;
7531;SDS011;3807;49.030;8.714;2023-07-29T09:25:39;2.92;;;1.40;;
7531;SDS011;3807;49.030;8.714;2023-07-29T09:28:09;1.95;;;1.33;;
7531;SDS011;3807;49.030;8.714;2023-07-29T09:30:37;2.25;;;1.60;;
7531;SDS011;3807;49.030;8.714;2023-07-29T09:33:07;1.87;;;1.20;;
7531;SDS011;3807;49.030;8.714;2023-07-29T09:35:34;2.30;;;1.20;;
7531;SDS011;3807;49.030;8.714;2023-07-29T09:38:01;1.87;;;1.60;;
7531;SDS011;3807;49.030;8.714;2023-07-29T09:40:26;1.37;;;1.10;;
7531;SDS011;3807;49.030;8.714;2023-07-29T09:42:53;4.00;;;1.40;;
7531;SDS011;3807;49.030;8.714;2023-07-29T09:45:23;1.80;;;1.35;;
7531;SDS011;3807;49.030;8.714;2023-07-29T09:47:49;1.65;;;1.20;;
7531;SDS011;3807;49.030;8.714;2023-07-29T09:50:15;2.15;;;1.40;;
7531;SDS011;3807;49.030;8.714;2023-07-29T09:52:41;3.90;;;1.60;;
7531;SDS011;3807;49.030;8.714;2023-07-29T09:55:07;3.72;;;1.75;;
7531;SDS011;3807;49.030;8.714;2023-07-29T09:57:34;2.72;;;1.62;;
7531;SDS011;3807;49.030;8.714;2023-07-29T10:00:01;1.90;;;1.55;;
7531;SDS011;3807;49.030;8.714;2023-07-29T10:02:29;2.20;;;1.80;;
7531;SDS011;3807;49.030;8.714;2023-07-29T10:04:55;5.35;;;1.80;;
7531;SDS011;3807;49.030;8.714;2023-07-29T10:07:22;4.10;;;1.95;;
7531;SDS011;3807;49.030;8.714;2023-07-29T10:09:49;2.42;;;2.03;;
7531;SDS011;3807;49.030;8.714;2023-07-29T10:12:17;2.05;;;1.70;;
7531;SDS011;3807;49.030;8.714;2023-07-29T10:14:43;2.37;;;2.08;;
7531;SDS011;3807;49.030;8.714;2023-07-29T10:17:09;2.67;;;1.73;;
7531;SDS011;3807;49.030;8.714;2023-07-29T10:19:35;2.25;;;2.05;;
7531;SDS011;3807;49.030;8.714;2023-07-29T10:22:01;1.90;;;1.50;;
7531;SDS011;3807;49.030;8.714;2023-07-29T10:24:32;2.03;;;1.50;;
7531;SDS011;3807;49.030;8.714;2023-07-29T10:26:58;1.85;;;1.10;;
7531;SDS011;3807;49.030;8.714;2023-07-29T10:29:32;1.52;;;1.33;;
7531;SDS011;3807;49.030;8.714;2023-07-29T10:32:03;3.83;;;1.42;;
7531;SDS011;3807;49.030;8.714;2023-07-29T10:34:30;2.22;;;1.42;;
7531;SDS011;3807;49.030;8.714;2023-07-29T10:36:56;2.20;;;1.20;;
7531;SDS011;3807;49.030;8.714;2023-07-29T10:39:24;1.20;;;1.08;;
7531;SDS011;3807;49.030;8.714;2023-07-29T10:47:26;1.67;;;1.45;;
7531;SDS011;3807;49.030;8.714;2023-07-29T10:49:55;1.77;;;1.10;;
7531;SDS011;3807;49.030;8.714;2023-07-29T10:55:24;1.10;;;1.00;;
7531;SDS011;3807;49.030;8.714;2023-07-29T10:57:52;1.33;;;1.10;;
7531;SDS011;3807;49.030;8.714;2023-07-29T11:00:30;1.12;;;0.90;;
7531;SDS011;3807;49.030;8.714;2023-07-29T11:02:59;0.90;;;0.90;;
7531;SDS011;3807;49.030;8.714;2023-07-29T11:05:26;3.17;;;1.10;;
7531;SDS011;3807;49.030;8.714;2023-07-29T11:07:51;1.55;;;0.90;;
7531;SDS011;3807;49.030;8.714;2023-07-29T11:10:17;1.77;;;1.10;;
7531;SDS011;3807;49.030;8.714;2023-07-29T11:12:49;1.65;;;1.02;;
7531;SDS011;3807;49.030;8.714;2023-07-29T11:20:10;1.62;;;0.90;;
7531;SDS011;3807;49.030;8.714;2023-07-29T11:22:37;1.00;;;0.85;;
7531;SDS011;3807;49.030;8.714;2023-07-29T11:25:03;0.93;;;0.90;;
7531;SDS011;3807;49.030;8.714;2023-07-29T11:27:29;1.20;;;1.10;;
7531;SDS011;3807;49.030;8.714;2023-07-29T11:30:04;1.62;;;1.08;;
7531;SDS011;3807;49.030;8.714;2023-07-29T11:32:36;3.35;;;1.05;;
7531;SDS011;3807;49.030;8.714;2023-07-29T11:35:05;1.27;;;1.00;;
7531;SDS011;3807;49.030;8.714;2023-07-29T11:37:35;2.97;;;1.08;;
7531;SDS011;3807;49.030;8.714;2023-07-29T11:40:02;2.03;;;0.95;;
7531;SDS011;3807;49.030;8.714;2023-07-29T11:42:31;1.58;;;1.10;;
7531;SDS011;3807;49.030;8.714;2023-07-29T11:44:57;1.60;;;0.93;;
7531;SDS011;3807;49.030;8.714;2023-07-29T11:47:23;1.92;;;1.20;;
7531;SDS011;3807;49.030;8.714;2023-07-29T11:49:49;0.90;;;0.80;;
7531;SDS011;3807;49.030;8.714;2023-07-29T11:52:14;1.75;;;0.95;;
7531;SDS011;3807;49.030;8.714;2023-07-29T11:54:43;1.30;;;1.20;;
7531;SDS011;3807;49.030;8.714;2023-07-29T11:57:09;1.23;;;0.98;;
7531;SDS011;3807;49.030;8.714;2023-07-29T11:59:35;2.90;;;0.95;;
7531;SDS011;3807;49.030;8.714;2023-07-29T12:02:02;1.00;;;0.90;;
7531;SDS011;3807;49.030;8.714;2023-07-29T12:04:31;1.80;;;1.45;;
7531;SDS011;3807;49.030;8.714;2023-07-29T12:06:58;1.75;;;1.12;;
7531;SDS011;3807;49.030;8.714;2023-07-29T12:09:24;2.33;;;1.30;;
7531;SDS011;3807;49.030;8.714;2023-07-29T12:11:52;0.95;;;0.80;;
7531;SDS011;3807;49.030;8.714;2023-07-29T12:14:17;1.23;;;1.00;;
7531;SDS011;3807;49.030;8.714;2023-07-29T12:16:43;2.25;;;1.30;;
7531;SDS011;3807;49.030;8.714;2023-07-29T12:19:11;1.73;;;0.90;;
7531;SDS011;3807;49.030;8.714;2023-07-29T12:21:38;1.27;;;1.08;;
7531;SDS011;3807;49.030;8.714;2023-07-29T12:24:03;1.45;;;1.17;;
7531;SDS011;3807;49.030;8.714;2023-07-29T12:26:29;1.40;;;1.02;;
7531;SDS011;3807;49.030;8.714;2023-07-29T12:28:54;1.00;;;0.95;;
7531;SDS011;3807;49.030;8.714;2023-07-29T12:31:21;1.15;;;1.05;;
7531;SDS011;3807;49.030;8.714;2023-07-29T12:33:46;1.30;;;1.20;;
7531;SDS011;3807;49.030;8.714;2023-07-29T12:36:12;1.80;;;1.20;;
7531;SDS011;3807;49.030;8.714;2023-07-29T12:38:37;1.60;;;1.50;;
7531;SDS011;3807;49.030;8.714;2023-07-29T12:41:03;2.65;;;1.10;;
7531;SDS011;3807;49.030;8.714;2023-07-29T12:43:28;1.30;;;1.20;;
7531;SDS011;3807;49.030;8.714;2023-07-29T12:45:54;2.10;;;1.20;;
7531;SDS011;3807;49.030;8.714;2023-07-29T12:48:19;2.60;;;1.30;;
7531;SDS011;3807;49.030;8.714;2023-07-29T12:50:44;1.77;;;1.10;;
7531;SDS011;3807;49.030;8.714;2023-07-29T12:53:11;1.42;;;1.05;;
7531;SDS011;3807;49.030;8.714;2023-07-29T12:55:36;3.12;;;1.40;;
7531;SDS011;3807;49.030;8.714;2023-07-29T12:58:02;1.50;;;1.10;;
7531;SDS011;3807;49.030;8.714;2023-07-29T13:00:27;2.83;;;1.30;;
7531;SDS011;3807;49.030;8.714;2023-07-29T13:02:53;1.50;;;1.10;;
7531;SDS011;3807;49.030;8.714;2023-07-29T13:05:19;2.20;;;1.40;;
7531;SDS011;3807;49.030;8.714;2023-07-29T13:07:44;2.45;;;1.25;;
7531;SDS011;3807;49.030;8.714;2023-07-29T13:10:10;1.37;;;0.98;;
7531;SDS011;3807;49.030;8.714;2023-07-29T13:12:35;2.15;;;1.37;;
7531;SDS011;3807;49.030;8.714;2023-07-29T13:15:01;1.20;;;1.10;;
7531;SDS011;3807;49.030;8.714;2023-07-29T13:17:26;1.98;;;1.20;;
7531;SDS011;3807;49.030;8.714;2023-07-29T13:19:52;2.15;;;1.40;;
7531;SDS011;3807;49.030;8.714;2023-07-29T13:22:17;1.20;;;1.10;;
7531;SDS011;3807;49.030;8.714;2023-07-29T13:24:43;2.10;;;1.20;;
7531;SDS011;3807;49.030;8.714;2023-07-29T13:27:08;1.00;;;0.90;;
7531;SDS011;3807;49.030;8.714;2023-07-29T13:29:33;1.10;;;1.00;;
7531;SDS011;3807;49.030;8.714;2023-07-29T13:31:59;1.30;;;1.20;;
7531;SDS011;3807;49.030;8.714;2023-07-29T13:34:24;1.10;;;1.00;;
7531;SDS011;3807;49.030;8.714;2023-07-29T13:36:50;2.15;;;1.40;;
7531;SDS011;3807;49.030;8.714;2023-07-29T13:39:15;3.15;;;1.20;;
7531;SDS011;3807;49.030;8.714;2023-07-29T13:41:40;2.90;;;1.20;;
7531;SDS011;3807;49.030;8.714;2023-07-29T13:44:06;1.55;;;1.08;;
7531;SDS011;3807;49.030;8.714;2023-07-29T13:46:31;1.85;;;1.30;;
7531;SDS011;3807;49.030;8.714;2023-07-29T13:48:56;4.47;;;1.20;;
7531;SDS011;3807;49.030;8.714;2023-07-29T13:51:22;1.48;;;1.23;;
7531;SDS011;3807;49.030;8.714;2023-07-29T13:53:47;1.23;;;1.12;;
7531;SDS011;3807;49.030;8.714;2023-07-29T13:56:13;1.67;;;1.35;;
7531;SDS011;3807;49.030;8.714;2023-07-29T13:58:38;1.55;;;1.20;;
7531;SDS011;3807;49.030;8.714;2023-07-29T14:01:04;1.65;;;1.30;;
7531;SDS011;3807;49.030;8.714;2023-07-29T14:03:30;1.98;;;1.35;;
7531;SDS011;3807;49.030;8.714;2023-07-29T14:05:55;1.48;;;1.25;;
7531;SDS011;3807;49.030;8.714;2023-07-29T14:08:20;3.50;;;1.30;;
7531;SDS011;3807;49.030;8.714;2023-07-29T14:10:48;1.67;;;1.10;;
7531;SDS011;3807;49.030;8.714;2023-07-29T14:13:14;4.25;;;1.25;;
7531;SDS011;3807;49.030;8.714;2023-07-29T14:15:39;1.67;;;1.00;;
7531;SDS011;3807;49.030;8.714;2023-07-29T14:18:04;1.67;;;1.20;;
7531;SDS011;3807;49.030;8.714;2023-07-29T14:20:31;2.00;;;1.40;;
7531;SDS011;3807;49.030;8.714;2023-07-29T14:22:57;1.17;;;1.08;;
7531;SDS011;3807;49.030;8.714;2023-07-29T14:25:22;1.45;;;1.20;;
7531;SDS011;3807;49.030;8.714;2023-07-29T14:27:47;1.60;;;1.37;;
7531;SDS011;3807;49.030;8.714;2023-07-29T14:30:13;1.58;;;1.17;;
7531;SDS011;3807;49.030;8.714;2023-07-29T14:32:38;2.87;;;1.60;;
7531;SDS011;3807;49.030;8.714;2023-07-29T14:35:03;1.55;;;1.35;;
7531;SDS011;3807;49.030;8.714;2023-07-29T14:37:29;1.02;;;0.93;;
7531;SDS011;3807;49.030;8.714;2023-07-29T14:39:56;1.42;;;1.33;;
7531;SDS011;3807;49.030;8.714;2023-07-29T14:42:22;1.42;;;1.33;;
7531;SDS011;3807;49.030;8.714;2023-07-29T14:44:47;1.50;;;1.25;;
7531;SDS011;3807;49.030;8.714;2023-07-29T14:47:13;1.40;;;1.30;;
7531;SDS011;3807;49.030;8.714;2023-07-29T14:49:38;1.58;;;1.27;;
7531;SDS011;3807;49.030;8.714;2023-07-29T14:52:04;1.62;;;1.30;;
7531;SDS011;3807;49.030;8.714;2023-07-29T14:54:29;1.62;;;1.27;;
7531;SDS011;3807;49.030;8.714;2023-07-29T14:56:55;1.40;;;1.20;;
7531;SDS011;3807;49.030;8.714;2023-07-29T14:59:20;1.45;;;1.20;;
7531;SDS011;3807;49.030;8.714;2023-07-29T15:01:46;1.80;;;1.48;;
7531;SDS011;3807;49.030;8.714;2023-07-29T15:04:11;1.40;;;1.23;;
7531;SDS011;3807;49.030;8.714;2023-07-29T15:06:36;1.80;;;1.50;;
7531;SDS011;3807;49.030;8.714;2023-07-29T15:09:02;1.40;;;1.30;;
7531;SDS011;3807;49.030;8.714;2023-07-29T15:11:27;2.47;;;1.27;;
7531;SDS011;3807;49.030;8.714;2023-07-29T15:13:53;1.25;;;1.02;;
7531;SDS011;3807;49.030;8.714;2023-07-29T15:16:18;1.30;;;1.20;;
7531;SDS011;3807;49.030;8.714;2023-07-29T15:18:43;1.27;;;1.17;;
7531;SDS011;3807;49.030;8.714;2023-07-29T15:21:09;2.50;;;1.50;;
7531;SDS011;3807;49.030;8.714;2023-07-29T15:23:34;2.90;;;1.45;;
7531;SDS011;3807;49.030;8.714;2023-07-29T15:25:59;2.03;;;1.70;;